sensor_id;sensor_type;location;lat;lon;timestamp;P1;durP1;ratioP1;P2;durP2;ratioP2
12836;SDS011;6485;51.472;5.268;2022-08-05T00:00:12;9.27;;;5.73;;
12836;SDS011;6485;51.472;5.268;2022-08-05T00:02:42;8.17;;;5.70;;
12836;SDS011;6485;51.472;5.268;2022-08-05T00:05:18;8.37;;;5.50;;
12836;SDS011;6485;51.472;5.268;2022-08-05T00:08:06;11.27;;;5.57;;
12836;SDS011;6485;51.472;5.268;2022-08-05T00:10:55;11.07;;;6.03;;
12836;SDS011;6485;51.472;5.268;2022-08-05T00:13:26;7.27;;;5.43;;
12836;SDS011;6485;51.472;5.268;2022-08-05T00:16:05;9.10;;;5.77;;
12836;SDS011;6485;51.472;5.268;2022-08-05T00:18:37;9.67;;;5.80;;
12836;SDS011;6485;51.472;5.268;2022-08-05T00:21:09;8.53;;;5.30;;
12836;SDS011;6485;51.472;5.268;2022-08-05T00:23:40;9.23;;;5.23;;
12836;SDS011;6485;51.472;5.268;2022-08-05T00:26:29;7.97;;;5.23;;
12836;SDS011;6485;51.472;5.268;2022-08-05T00:28:57;7.93;;;5.47;;
12836;SDS011;6485;51.472;5.268;2022-08-05T00:31:27;9.43;;;5.80;;
12836;SDS011;6485;51.472;5.268;2022-08-05T00:34:15;12.43;;;5.37;;
12836;SDS011;6485;51.472;5.268;2022-08-05T00:37:05;11.00;;;5.87;;
12836;SDS011;6485;51.472;5.268;2022-08-05T00:39:39;7.53;;;5.30;;
12836;SDS011;6485;51.472;5.268;2022-08-05T00:42:29;10.53;;;5.43;;
12836;SDS011;6485;51.472;5.268;2022-08-05T00:44:58;7.93;;;5.00;;
12836;SDS011;6485;51.472;5.268;2022-08-05T00:47:26;8.93;;;5.90;;
12836;SDS011;6485;51.472;5.268;2022-08-05T00:50:14;9.60;;;5.67;;
12836;SDS011;6485;51.472;5.268;2022-08-05T00:52:44;9.97;;;5.87;;
12836;SDS011;6485;51.472;5.268;2022-08-05T00:55:12;10.37;;;5.47;;
12836;SDS011;6485;51.472;5.268;2022-08-05T00:57:40;9.13;;;5.67;;
12836;SDS011;6485;51.472;5.268;2022-08-05T01:00:24;9.93;;;5.93;;
12836;SDS011;6485;51.472;5.268;2022-08-05T01:02:53;9.57;;;5.30;;
12836;SDS011;6485;51.472;5.268;2022-08-05T01:05:21;9.60;;;5.70;;
12836;SDS011;6485;51.472;5.268;2022-08-05T01:07:54;10.77;;;6.47;;
12836;SDS011;6485;51.472;5.268;2022-08-05T01:10:43;11.17;;;5.40;;
12836;SDS011;6485;51.472;5.268;2022-08-05T01:13:20;10.70;;;5.90;;
12836;SDS011;6485;51.472;5.268;2022-08-05T01:16:16;9.40;;;5.70;;
12836;SDS011;6485;51.472;5.268;2022-08-05T01:18:53;9.83;;;5.77;;
12836;SDS011;6485;51.472;5.268;2022-08-05T01:21:35;9.13;;;5.70;;
12836;SDS011;6485;51.472;5.268;2022-08-05T01:24:38;11.43;;;5.57;;
12836;SDS011;6485;51.472;5.268;2022-08-05T01:27:20;10.77;;;5.70;;
12836;SDS011;6485;51.472;5.268;2022-08-05T01:30:00;10.97;;;5.63;;
12836;SDS011;6485;51.472;5.268;2022-08-05T01:32:43;9.87;;;5.70;;
12836;SDS011;6485;51.472;5.268;2022-08-05T01:35:14;13.33;;;5.73;;
12836;SDS011;6485;51.472;5.268;2022-08-05T01:38:04;7.13;;;5.20;;
12836;SDS011;6485;51.472;5.268;2022-08-05T01:40:50;11.10;;;5.93;;
12836;SDS011;6485;51.472;5.268;2022-08-05T01:43:19;9.53;;;5.13;;
12836;SDS011;6485;51.472;5.268;2022-08-05T01:45:50;8.97;;;5.70;;
12836;SDS011;6485;51.472;5.268;2022-08-05T01:48:22;17.00;;;5.73;;
12836;SDS011;6485;51.472;5.268;2022-08-05T01:50:52;13.00;;;6.50;;
12836;SDS011;6485;51.472;5.268;2022-08-05T01:53:37;12.43;;;5.73;;
12836;SDS011;6485;51.472;5.268;2022-08-05T01:56:25;9.47;;;5.27;;
12836;SDS011;6485;51.472;5.268;2022-08-05T01:59:16;8.13;;;5.03;;
12836;SDS011;6485;51.472;5.268;2022-08-05T02:01:50;10.47;;;5.03;;
12836;SDS011;6485;51.472;5.268;2022-08-05T02:04:22;13.67;;;5.60;;
12836;SDS011;6485;51.472;5.268;2022-08-05T02:06:55;10.40;;;5.07;;
12836;SDS011;6485;51.472;5.268;2022-08-05T02:09:24;12.57;;;5.50;;
12836;SDS011;6485;51.472;5.268;2022-08-05T02:11:54;12.60;;;5.80;;
12836;SDS011;6485;51.472;5.268;2022-08-05T02:14:29;9.83;;;5.43;;
12836;SDS011;6485;51.472;5.268;2022-08-05T02:17:02;12.93;;;5.63;;
12836;SDS011;6485;51.472;5.268;2022-08-05T02:19:43;9.13;;;5.60;;
12836;SDS011;6485;51.472;5.268;2022-08-05T02:22:15;11.93;;;6.03;;
12836;SDS011;6485;51.472;5.268;2022-08-05T02:24:52;11.37;;;5.60;;
12836;SDS011;6485;51.472;5.268;2022-08-05T02:27:25;13.10;;;5.63;;
12836;SDS011;6485;51.472;5.268;2022-08-05T02:30:15;8.73;;;5.53;;
12836;SDS011;6485;51.472;5.268;2022-08-05T02:32:46;10.13;;;5.30;;
12836;SDS011;6485;51.472;5.268;2022-08-05T02:35:18;12.10;;;5.47;;
12836;SDS011;6485;51.472;5.268;2022-08-05T02:38:02;10.83;;;5.33;;
12836;SDS011;6485;51.472;5.268;2022-08-05T02:40:34;12.50;;;5.47;;
12836;SDS011;6485;51.472;5.268;2022-08-05T02:43:05;6.80;;;4.67;;
12836;SDS011;6485;51.472;5.268;2022-08-05T02:45:35;9.17;;;5.07;;
12836;SDS011;6485;51.472;5.268;2022-08-05T02:48:19;9.00;;;5.00;;
12836;SDS011;6485;51.472;5.268;2022-08-05T02:50:54;7.90;;;5.23;;
12836;SDS011;6485;51.472;5.268;2022-08-05T02:53:25;10.60;;;5.37;;
12836;SDS011;6485;51.472;5.268;2022-08-05T02:56:05;13.87;;;5.80;;
12836;SDS011;6485;51.472;5.268;2022-08-05T02:58:35;11.93;;;5.43;;
12836;SDS011;6485;51.472;5.268;2022-08-05T03:01:10;8.93;;;5.20;;
12836;SDS011;6485;51.472;5.268;2022-08-05T03:03:46;8.23;;;5.37;;
12836;SDS011;6485;51.472;5.268;2022-08-05T03:06:37;8.53;;;5.20;;
12836;SDS011;6485;51.472;5.268;2022-08-05T03:09:24;7.20;;;5.33;;
12836;SDS011;6485;51.472;5.268;2022-08-05T03:12:04;9.67;;;5.30;;
12836;SDS011;6485;51.472;5.268;2022-08-05T03:14:33;8.37;;;5.50;;
12836;SDS011;6485;51.472;5.268;2022-08-05T03:17:11;8.20;;;5.20;;
12836;SDS011;6485;51.472;5.268;2022-08-05T03:19:41;8.70;;;5.03;;
12836;SDS011;6485;51.472;5.268;2022-08-05T03:22:11;6.07;;;5.00;;
12836;SDS011;6485;51.472;5.268;2022-08-05T03:24:44;11.87;;;4.83;;
12836;SDS011;6485;51.472;5.268;2022-08-05T03:27:17;11.80;;;5.40;;
12836;SDS011;6485;51.472;5.268;2022-08-05T03:29:46;12.50;;;6.23;;
12836;SDS011;6485;51.472;5.268;2022-08-05T03:32:34;8.70;;;5.17;;
12836;SDS011;6485;51.472;5.268;2022-08-05T03:35:04;10.63;;;5.13;;
12836;SDS011;6485;51.472;5.268;2022-08-05T03:37:34;11.37;;;5.53;;
12836;SDS011;6485;51.472;5.268;2022-08-05T03:40:12;10.23;;;5.03;;
12836;SDS011;6485;51.472;5.268;2022-08-05T03:42:56;8.33;;;5.13;;
12836;SDS011;6485;51.472;5.268;2022-08-05T03:45:26;8.90;;;5.33;;
12836;SDS011;6485;51.472;5.268;2022-08-05T03:48:14;12.80;;;5.37;;
12836;SDS011;6485;51.472;5.268;2022-08-05T03:50:51;7.37;;;5.10;;
12836;SDS011;6485;51.472;5.268;2022-08-05T03:53:43;10.73;;;5.57;;
12836;SDS011;6485;51.472;5.268;2022-08-05T03:56:38;6.87;;;5.07;;
12836;SDS011;6485;51.472;5.268;2022-08-05T03:59:12;12.07;;;5.47;;
12836;SDS011;6485;51.472;5.268;2022-08-05T04:01:46;8.83;;;5.50;;
12836;SDS011;6485;51.472;5.268;2022-08-05T04:04:17;9.07;;;5.30;;
12836;SDS011;6485;51.472;5.268;2022-08-05T04:06:53;12.90;;;5.33;;
12836;SDS011;6485;51.472;5.268;2022-08-05T04:09:22;11.50;;;5.60;;
12836;SDS011;6485;51.472;5.268;2022-08-05T04:11:52;12.37;;;5.43;;
12836;SDS011;6485;51.472;5.268;2022-08-05T04:14:22;10.40;;;5.30;;
12836;SDS011;6485;51.472;5.268;2022-08-05T04:16:56;9.93;;;5.53;;
12836;SDS011;6485;51.472;5.268;2022-08-05T04:19:28;10.30;;;5.53;;
12836;SDS011;6485;51.472;5.268;2022-08-05T04:21:58;14.60;;;5.40;;
12836;SDS011;6485;51.472;5.268;2022-08-05T04:24:37;10.57;;;5.37;;
12836;SDS011;6485;51.472;5.268;2022-08-05T04:27:10;7.07;;;5.13;;
12836;SDS011;6485;51.472;5.268;2022-08-05T04:29:40;14.33;;;6.10;;
12836;SDS011;6485;51.472;5.268;2022-08-05T04:32:09;11.10;;;5.90;;
12836;SDS011;6485;51.472;5.268;2022-08-05T04:34:37;8.97;;;6.00;;
12836;SDS011;6485;51.472;5.268;2022-08-05T04:37:10;11.63;;;6.07;;
12836;SDS011;6485;51.472;5.268;2022-08-05T04:39:38;10.00;;;5.70;;
12836;SDS011;6485;51.472;5.268;2022-08-05T04:42:06;14.47;;;5.90;;
12836;SDS011;6485;51.472;5.268;2022-08-05T04:44:36;9.00;;;5.20;;
12836;SDS011;6485;51.472;5.268;2022-08-05T04:47:05;18.53;;;6.03;;
12836;SDS011;6485;51.472;5.268;2022-08-05T04:49:35;9.90;;;5.73;;
12836;SDS011;6485;51.472;5.268;2022-08-05T04:52:25;9.83;;;5.60;;
12836;SDS011;6485;51.472;5.268;2022-08-05T04:54:53;12.10;;;5.67;;
12836;SDS011;6485;51.472;5.268;2022-08-05T04:57:24;9.30;;;5.87;;
12836;SDS011;6485;51.472;5.268;2022-08-05T05:00:02;9.57;;;6.30;;
12836;SDS011;6485;51.472;5.268;2022-08-05T05:02:32;11.73;;;5.80;;
12836;SDS011;6485;51.472;5.268;2022-08-05T05:05:08;9.87;;;5.93;;
12836;SDS011;6485;51.472;5.268;2022-08-05T05:07:53;10.13;;;5.80;;
12836;SDS011;6485;51.472;5.268;2022-08-05T05:10:27;12.27;;;5.80;;
12836;SDS011;6485;51.472;5.268;2022-08-05T05:12:55;12.23;;;6.23;;
12836;SDS011;6485;51.472;5.268;2022-08-05T05:15:24;10.80;;;6.43;;
12836;SDS011;6485;51.472;5.268;2022-08-05T05:18:12;12.37;;;5.87;;
12836;SDS011;6485;51.472;5.268;2022-08-05T05:20:56;10.23;;;6.27;;
12836;SDS011;6485;51.472;5.268;2022-08-05T05:23:27;10.23;;;5.97;;
12836;SDS011;6485;51.472;5.268;2022-08-05T05:26:15;14.30;;;6.60;;
12836;SDS011;6485;51.472;5.268;2022-08-05T05:28:43;11.87;;;6.57;;
12836;SDS011;6485;51.472;5.268;2022-08-05T05:31:11;10.60;;;6.10;;
12836;SDS011;6485;51.472;5.268;2022-08-05T05:33:39;11.20;;;5.97;;
12836;SDS011;6485;51.472;5.268;2022-08-05T05:36:25;9.40;;;5.87;;
12836;SDS011;6485;51.472;5.268;2022-08-05T05:38:56;12.47;;;6.07;;
12836;SDS011;6485;51.472;5.268;2022-08-05T05:41:25;9.97;;;6.27;;
12836;SDS011;6485;51.472;5.268;2022-08-05T05:44:07;9.67;;;6.57;;
12836;SDS011;6485;51.472;5.268;2022-08-05T05:46:55;10.57;;;6.23;;
12836;SDS011;6485;51.472;5.268;2022-08-05T05:49:29;11.47;;;6.20;;
12836;SDS011;6485;51.472;5.268;2022-08-05T05:51:58;9.30;;;6.27;;
12836;SDS011;6485;51.472;5.268;2022-08-05T05:54:34;16.17;;;6.70;;
12836;SDS011;6485;51.472;5.268;2022-08-05T05:57:16;12.07;;;6.10;;
12836;SDS011;6485;51.472;5.268;2022-08-05T05:59:45;13.03;;;6.70;;
12836;SDS011;6485;51.472;5.268;2022-08-05T06:02:14;11.47;;;6.57;;
12836;SDS011;6485;51.472;5.268;2022-08-05T06:05:02;13.57;;;6.30;;
12836;SDS011;6485;51.472;5.268;2022-08-05T06:07:42;11.50;;;6.43;;
12836;SDS011;6485;51.472;5.268;2022-08-05T06:10:28;13.73;;;6.30;;
12836;SDS011;6485;51.472;5.268;2022-08-05T06:13:16;13.50;;;6.33;;
12836;SDS011;6485;51.472;5.268;2022-08-05T06:15:44;11.30;;;6.13;;
12836;SDS011;6485;51.472;5.268;2022-08-05T06:18:32;12.67;;;6.13;;
12836;SDS011;6485;51.472;5.268;2022-08-05T06:21:04;11.97;;;6.07;;
12836;SDS011;6485;51.472;5.268;2022-08-05T06:23:43;10.47;;;6.00;;
12836;SDS011;6485;51.472;5.268;2022-08-05T06:26:16;11.87;;;6.37;;
12836;SDS011;6485;51.472;5.268;2022-08-05T06:28:49;14.73;;;5.97;;
12836;SDS011;6485;51.472;5.268;2022-08-05T06:31:17;11.20;;;6.90;;
12836;SDS011;6485;51.472;5.268;2022-08-05T06:33:47;10.07;;;5.90;;
12836;SDS011;6485;51.472;5.268;2022-08-05T06:36:34;9.43;;;5.90;;
12836;SDS011;6485;51.472;5.268;2022-08-05T06:39:22;10.90;;;6.30;;
12836;SDS011;6485;51.472;5.268;2022-08-05T06:41:54;11.37;;;5.73;;
12836;SDS011;6485;51.472;5.268;2022-08-05T06:44:24;8.77;;;5.67;;
12836;SDS011;6485;51.472;5.268;2022-08-05T06:46:53;11.50;;;5.93;;
12836;SDS011;6485;51.472;5.268;2022-08-05T06:49:21;9.77;;;6.00;;
12836;SDS011;6485;51.472;5.268;2022-08-05T06:52:10;11.20;;;5.83;;
12836;SDS011;6485;51.472;5.268;2022-08-05T06:54:58;9.33;;;6.40;;
12836;SDS011;6485;51.472;5.268;2022-08-05T06:57:29;11.97;;;5.70;;
12836;SDS011;6485;51.472;5.268;2022-08-05T07:00:18;9.20;;;5.70;;
12836;SDS011;6485;51.472;5.268;2022-08-05T07:02:49;11.70;;;5.90;;
12836;SDS011;6485;51.472;5.268;2022-08-05T07:05:19;13.67;;;5.80;;
12836;SDS011;6485;51.472;5.268;2022-08-05T07:08:02;10.57;;;5.23;;
12836;SDS011;6485;51.472;5.268;2022-08-05T07:10:36;12.20;;;5.13;;
12836;SDS011;6485;51.472;5.268;2022-08-05T07:13:20;9.63;;;5.30;;
12836;SDS011;6485;51.472;5.268;2022-08-05T07:16:25;9.07;;;5.30;;
12836;SDS011;6485;51.472;5.268;2022-08-05T07:19:31;11.60;;;5.47;;
12836;SDS011;6485;51.472;5.268;2022-08-05T07:22:20;9.30;;;4.87;;
12836;SDS011;6485;51.472;5.268;2022-08-05T07:24:55;7.23;;;4.83;;
12836;SDS011;6485;51.472;5.268;2022-08-05T07:27:24;10.37;;;4.53;;
12836;SDS011;6485;51.472;5.268;2022-08-05T07:30:14;9.20;;;4.67;;
12836;SDS011;6485;51.472;5.268;2022-08-05T07:32:55;7.10;;;4.87;;
12836;SDS011;6485;51.472;5.268;2022-08-05T07:35:23;9.93;;;4.83;;
12836;SDS011;6485;51.472;5.268;2022-08-05T07:38:12;12.00;;;5.03;;
12836;SDS011;6485;51.472;5.268;2022-08-05T07:41:00;9.03;;;4.47;;
12836;SDS011;6485;51.472;5.268;2022-08-05T07:43:50;8.13;;;4.80;;
12836;SDS011;6485;51.472;5.268;2022-08-05T07:46:22;8.90;;;4.60;;
12836;SDS011;6485;51.472;5.268;2022-08-05T07:48:52;6.67;;;4.37;;
12836;SDS011;6485;51.472;5.268;2022-08-05T07:51:33;6.97;;;3.77;;
12836;SDS011;6485;51.472;5.268;2022-08-05T07:54:19;5.13;;;3.80;;
12836;SDS011;6485;51.472;5.268;2022-08-05T07:56:57;6.80;;;3.40;;
12836;SDS011;6485;51.472;5.268;2022-08-05T07:59:45;6.33;;;4.00;;
12836;SDS011;6485;51.472;5.268;2022-08-05T08:02:15;6.97;;;3.87;;
12836;SDS011;6485;51.472;5.268;2022-08-05T08:04:44;8.60;;;3.33;;
12836;SDS011;6485;51.472;5.268;2022-08-05T08:07:14;8.53;;;3.40;;
12836;SDS011;6485;51.472;5.268;2022-08-05T08:09:48;7.43;;;3.53;;
12836;SDS011;6485;51.472;5.268;2022-08-05T08:12:19;6.53;;;3.20;;
12836;SDS011;6485;51.472;5.268;2022-08-05T08:15:03;14.13;;;4.10;;
12836;SDS011;6485;51.472;5.268;2022-08-05T08:17:41;5.23;;;3.00;;
12836;SDS011;6485;51.472;5.268;2022-08-05T08:20:16;5.57;;;3.00;;
12836;SDS011;6485;51.472;5.268;2022-08-05T08:23:04;3.97;;;2.93;;
12836;SDS011;6485;51.472;5.268;2022-08-05T08:25:53;5.50;;;3.10;;
12836;SDS011;6485;51.472;5.268;2022-08-05T08:28:26;5.00;;;3.37;;
12836;SDS011;6485;51.472;5.268;2022-08-05T08:31:14;5.83;;;3.57;;
12836;SDS011;6485;51.472;5.268;2022-08-05T08:33:45;3.83;;;3.10;;
12836;SDS011;6485;51.472;5.268;2022-08-05T08:36:18;8.27;;;3.13;;
12836;SDS011;6485;51.472;5.268;2022-08-05T08:39:06;4.40;;;3.30;;
12836;SDS011;6485;51.472;5.268;2022-08-05T08:41:41;4.67;;;3.40;;
12836;SDS011;6485;51.472;5.268;2022-08-05T08:44:24;5.73;;;3.00;;
12836;SDS011;6485;51.472;5.268;2022-08-05T08:47:15;5.83;;;3.00;;
12836;SDS011;6485;51.472;5.268;2022-08-05T08:50:10;4.57;;;2.90;;
12836;SDS011;6485;51.472;5.268;2022-08-05T08:52:59;6.33;;;2.87;;
12836;SDS011;6485;51.472;5.268;2022-08-05T08:55:33;2.67;;;2.43;;
12836;SDS011;6485;51.472;5.268;2022-08-05T08:58:22;5.43;;;2.80;;
12836;SDS011;6485;51.472;5.268;2022-08-05T09:01:08;10.37;;;3.23;;
12836;SDS011;6485;51.472;5.268;2022-08-05T09:03:43;5.20;;;2.97;;
12836;SDS011;6485;51.472;5.268;2022-08-05T09:06:14;3.27;;;2.83;;
12836;SDS011;6485;51.472;5.268;2022-08-05T09:08:49;5.63;;;3.10;;
12836;SDS011;6485;51.472;5.268;2022-08-05T09:11:17;2.93;;;2.50;;
12836;SDS011;6485;51.472;5.268;2022-08-05T09:14:05;5.23;;;3.33;;
12836;SDS011;6485;51.472;5.268;2022-08-05T09:16:54;3.27;;;2.63;;
12836;SDS011;6485;51.472;5.268;2022-08-05T09:19:23;4.03;;;2.70;;
12836;SDS011;6485;51.472;5.268;2022-08-05T09:22:03;6.83;;;2.60;;
12836;SDS011;6485;51.472;5.268;2022-08-05T09:24:57;5.97;;;2.37;;
12836;SDS011;6485;51.472;5.268;2022-08-05T09:27:30;5.60;;;2.70;;
12836;SDS011;6485;51.472;5.268;2022-08-05T09:30:20;5.60;;;2.40;;
12836;SDS011;6485;51.472;5.268;2022-08-05T09:32:49;2.80;;;2.20;;
12836;SDS011;6485;51.472;5.268;2022-08-05T09:35:18;4.03;;;2.30;;
12836;SDS011;6485;51.472;5.268;2022-08-05T09:37:54;5.60;;;2.50;;
12836;SDS011;6485;51.472;5.268;2022-08-05T09:40:43;5.17;;;2.70;;
12836;SDS011;6485;51.472;5.268;2022-08-05T09:43:26;5.87;;;2.70;;
12836;SDS011;6485;51.472;5.268;2022-08-05T09:46:07;2.90;;;2.50;;
12836;SDS011;6485;51.472;5.268;2022-08-05T09:48:53;3.27;;;2.40;;
12836;SDS011;6485;51.472;5.268;2022-08-05T09:51:42;2.60;;;2.40;;
12836;SDS011;6485;51.472;5.268;2022-08-05T09:54:17;3.23;;;2.20;;
12836;SDS011;6485;51.472;5.268;2022-08-05T09:56:57;6.07;;;2.53;;
12836;SDS011;6485;51.472;5.268;2022-08-05T09:59:27;5.43;;;2.20;;
12836;SDS011;6485;51.472;5.268;2022-08-05T10:02:02;4.97;;;2.10;;
12836;SDS011;6485;51.472;5.268;2022-08-05T10:04:35;4.93;;;2.20;;
12836;SDS011;6485;51.472;5.268;2022-08-05T10:07:06;4.07;;;1.73;;
12836;SDS011;6485;51.472;5.268;2022-08-05T10:09:56;5.00;;;1.70;;
12836;SDS011;6485;51.472;5.268;2022-08-05T11:14:23;3.13;;;1.30;;
12836;SDS011;6485;51.472;5.268;2022-08-05T11:17:23;1.77;;;1.20;;
12836;SDS011;6485;51.472;5.268;2022-08-05T11:20:31;4.90;;;1.60;;
12836;SDS011;6485;51.472;5.268;2022-08-05T11:26:19;3.47;;;1.50;;
12836;SDS011;6485;51.472;5.268;2022-08-05T11:28:59;5.10;;;1.70;;
12836;SDS011;6485;51.472;5.268;2022-08-05T11:31:38;3.63;;;2.00;;
12836;SDS011;6485;51.472;5.268;2022-08-05T11:34:34;2.83;;;1.70;;
12836;SDS011;6485;51.472;5.268;2022-08-05T11:37:04;4.70;;;1.80;;
12836;SDS011;6485;51.472;5.268;2022-08-05T11:39:52;2.00;;;1.50;;
12836;SDS011;6485;51.472;5.268;2022-08-05T11:42:30;1.97;;;1.67;;
12836;SDS011;6485;51.472;5.268;2022-08-05T11:45:07;2.93;;;1.97;;
12836;SDS011;6485;51.472;5.268;2022-08-05T11:47:56;2.07;;;1.77;;
12836;SDS011;6485;51.472;5.268;2022-08-05T11:50:25;4.00;;;1.77;;
12836;SDS011;6485;51.472;5.268;2022-08-05T11:52:54;1.70;;;1.60;;
12836;SDS011;6485;51.472;5.268;2022-08-05T11:55:23;2.97;;;1.87;;
12836;SDS011;6485;51.472;5.268;2022-08-05T11:58:01;3.97;;;1.80;;
12836;SDS011;6485;51.472;5.268;2022-08-05T12:00:38;4.03;;;1.63;;
12836;SDS011;6485;51.472;5.268;2022-08-05T12:03:15;2.33;;;1.60;;
12836;SDS011;6485;51.472;5.268;2022-08-05T12:05:57;3.03;;;1.53;;
12836;SDS011;6485;51.472;5.268;2022-08-05T12:08:27;2.93;;;1.50;;
12836;SDS011;6485;51.472;5.268;2022-08-05T12:10:58;2.17;;;1.30;;
12836;SDS011;6485;51.472;5.268;2022-08-05T12:13:31;1.77;;;1.20;;
12836;SDS011;6485;51.472;5.268;2022-08-05T12:16:18;3.47;;;1.30;;
12836;SDS011;6485;51.472;5.268;2022-08-05T12:18:51;1.20;;;1.10;;
12836;SDS011;6485;51.472;5.268;2022-08-05T12:21:21;2.93;;;1.30;;
12836;SDS011;6485;51.472;5.268;2022-08-05T12:23:57;2.00;;;1.30;;
12836;SDS011;6485;51.472;5.268;2022-08-05T12:26:30;1.30;;;1.20;;
12836;SDS011;6485;51.472;5.268;2022-08-05T12:28:59;2.40;;;1.20;;
12836;SDS011;6485;51.472;5.268;2022-08-05T12:31:31;3.57;;;1.13;;
12836;SDS011;6485;51.472;5.268;2022-08-05T12:34:15;2.00;;;1.20;;
12836;SDS011;6485;51.472;5.268;2022-08-05T12:36:47;3.67;;;1.40;;
12836;SDS011;6485;51.472;5.268;2022-08-05T12:39:17;2.53;;;1.50;;
12836;SDS011;6485;51.472;5.268;2022-08-05T12:41:45;2.03;;;1.40;;
12836;SDS011;6485;51.472;5.268;2022-08-05T12:44:14;2.83;;;1.30;;
12836;SDS011;6485;51.472;5.268;2022-08-05T12:47:00;1.67;;;1.20;;
12836;SDS011;6485;51.472;5.268;2022-08-05T12:49:41;2.00;;;1.30;;
12836;SDS011;6485;51.472;5.268;2022-08-05T12:52:31;1.20;;;1.10;;
12836;SDS011;6485;51.472;5.268;2022-08-05T12:55:17;2.90;;;1.70;;
12836;SDS011;6485;51.472;5.268;2022-08-05T12:57:50;5.50;;;1.40;;
12836;SDS011;6485;51.472;5.268;2022-08-05T13:00:42;3.90;;;1.40;;
12836;SDS011;6485;51.472;5.268;2022-08-05T13:03:34;2.37;;;1.20;;
12836;SDS011;6485;51.472;5.268;2022-08-05T13:06:10;1.47;;;1.13;;
12836;SDS011;6485;51.472;5.268;2022-08-05T13:08:41;3.63;;;1.37;;
12836;SDS011;6485;51.472;5.268;2022-08-05T13:11:17;1.90;;;1.47;;
12836;SDS011;6485;51.472;5.268;2022-08-05T13:14:16;1.43;;;1.17;;
12836;SDS011;6485;51.472;5.268;2022-08-05T13:17:02;4.00;;;1.50;;
12836;SDS011;6485;51.472;5.268;2022-08-05T13:19:37;2.27;;;1.40;;
12836;SDS011;6485;51.472;5.268;2022-08-05T13:22:18;1.33;;;1.23;;
12836;SDS011;6485;51.472;5.268;2022-08-05T13:24:55;2.67;;;1.20;;
12836;SDS011;6485;51.472;5.268;2022-08-05T13:27:31;1.20;;;1.10;;
12836;SDS011;6485;51.472;5.268;2022-08-05T13:30:04;2.00;;;1.20;;
12836;SDS011;6485;51.472;5.268;2022-08-05T13:32:55;3.80;;;2.40;;
12836;SDS011;6485;51.472;5.268;2022-08-05T13:35:28;2.93;;;1.17;;
12836;SDS011;6485;51.472;5.268;2022-08-05T13:38:16;1.40;;;1.20;;
12836;SDS011;6485;51.472;5.268;2022-08-05T13:41:01;1.83;;;1.10;;
12836;SDS011;6485;51.472;5.268;2022-08-05T13:43:31;1.57;;;1.43;;
12836;SDS011;6485;51.472;5.268;2022-08-05T13:46:19;1.13;;;1.10;;
12836;SDS011;6485;51.472;5.268;2022-08-05T13:49:08;2.43;;;1.30;;
12836;SDS011;6485;51.472;5.268;2022-08-05T13:51:39;1.37;;;1.20;;
12836;SDS011;6485;51.472;5.268;2022-08-05T13:54:12;1.30;;;1.13;;
12836;SDS011;6485;51.472;5.268;2022-08-05T13:56:43;1.63;;;1.30;;
12836;SDS011;6485;51.472;5.268;2022-08-05T13:59:17;1.37;;;1.03;;
12836;SDS011;6485;51.472;5.268;2022-08-05T14:01:52;1.20;;;1.13;;
12836;SDS011;6485;51.472;5.268;2022-08-05T14:04:23;1.83;;;1.10;;
12836;SDS011;6485;51.472;5.268;2022-08-05T14:07:21;1.30;;;1.20;;
12836;SDS011;6485;51.472;5.268;2022-08-05T14:10:11;1.30;;;1.20;;
12836;SDS011;6485;51.472;5.268;2022-08-05T14:12:53;1.97;;;1.50;;
12836;SDS011;6485;51.472;5.268;2022-08-05T14:15:22;1.20;;;1.20;;
12836;SDS011;6485;51.472;5.268;2022-08-05T14:18:11;1.43;;;1.20;;
12836;SDS011;6485;51.472;5.268;2022-08-05T14:20:48;1.40;;;1.30;;
12836;SDS011;6485;51.472;5.268;2022-08-05T14:23:21;2.03;;;1.60;;
12836;SDS011;6485;51.472;5.268;2022-08-05T14:25:53;2.00;;;1.50;;
12836;SDS011;6485;51.472;5.268;2022-08-05T14:28:24;3.17;;;1.83;;
12836;SDS011;6485;51.472;5.268;2022-08-05T14:30:57;3.00;;;1.40;;
12836;SDS011;6485;51.472;5.268;2022-08-05T14:33:57;1.43;;;1.30;;
12836;SDS011;6485;51.472;5.268;2022-08-05T14:36:26;1.63;;;1.40;;
12836;SDS011;6485;51.472;5.268;2022-08-05T14:38:56;1.40;;;1.30;;
12836;SDS011;6485;51.472;5.268;2022-08-05T14:41:28;1.50;;;1.40;;
12836;SDS011;6485;51.472;5.268;2022-08-05T14:43:56;3.00;;;1.30;;
12836;SDS011;6485;51.472;5.268;2022-08-05T14:46:45;2.33;;;1.40;;
12836;SDS011;6485;51.472;5.268;2022-08-05T14:49:13;2.40;;;1.50;;
12836;SDS011;6485;51.472;5.268;2022-08-05T14:51:42;4.53;;;1.40;;
12836;SDS011;6485;51.472;5.268;2022-08-05T14:54:11;1.83;;;1.40;;
12836;SDS011;6485;51.472;5.268;2022-08-05T14:56:55;1.53;;;1.30;;
12836;SDS011;6485;51.472;5.268;2022-08-05T14:59:24;1.93;;;1.30;;
12836;SDS011;6485;51.472;5.268;2022-08-05T15:02:01;1.40;;;1.30;;
12836;SDS011;6485;51.472;5.268;2022-08-05T15:04:41;1.97;;;1.50;;
12836;SDS011;6485;51.472;5.268;2022-08-05T15:07:13;3.33;;;1.40;;
12836;SDS011;6485;51.472;5.268;2022-08-05T15:10:02;2.60;;;1.53;;
12836;SDS011;6485;51.472;5.268;2022-08-05T15:12:35;2.40;;;1.40;;
12836;SDS011;6485;51.472;5.268;2022-08-05T15:15:23;2.30;;;1.60;;
12836;SDS011;6485;51.472;5.268;2022-08-05T15:18:11;4.30;;;1.40;;
12836;SDS011;6485;51.472;5.268;2022-08-05T15:20:42;2.77;;;1.40;;
12836;SDS011;6485;51.472;5.268;2022-08-05T15:23:11;1.43;;;1.20;;
12836;SDS011;6485;51.472;5.268;2022-08-05T15:25:42;2.73;;;1.33;;
12836;SDS011;6485;51.472;5.268;2022-08-05T15:28:20;2.03;;;1.30;;
12836;SDS011;6485;51.472;5.268;2022-08-05T15:30:53;1.93;;;1.30;;
12836;SDS011;6485;51.472;5.268;2022-08-05T15:33:21;2.13;;;1.20;;
12836;SDS011;6485;51.472;5.268;2022-08-05T15:36:10;2.03;;;1.40;;
12836;SDS011;6485;51.472;5.268;2022-08-05T15:38:49;1.40;;;1.30;;
12836;SDS011;6485;51.472;5.268;2022-08-05T15:41:39;2.80;;;1.30;;
12836;SDS011;6485;51.472;5.268;2022-08-05T15:44:23;2.57;;;1.50;;
12836;SDS011;6485;51.472;5.268;2022-08-05T15:46:53;4.57;;;1.30;;
12836;SDS011;6485;51.472;5.268;2022-08-05T15:49:22;3.53;;;1.60;;
12836;SDS011;6485;51.472;5.268;2022-08-05T15:52:10;4.37;;;1.50;;
12836;SDS011;6485;51.472;5.268;2022-08-05T15:54:58;1.30;;;1.20;;
12836;SDS011;6485;51.472;5.268;2022-08-05T15:57:28;3.17;;;1.37;;
12836;SDS011;6485;51.472;5.268;2022-08-05T16:00:01;1.80;;;1.50;;
12836;SDS011;6485;51.472;5.268;2022-08-05T16:02:30;1.30;;;1.20;;
12836;SDS011;6485;51.472;5.268;2022-08-05T16:04:59;1.80;;;1.30;;
12836;SDS011;6485;51.472;5.268;2022-08-05T16:07:30;1.30;;;1.20;;
12836;SDS011;6485;51.472;5.268;2022-08-05T16:09:59;1.90;;;1.23;;
12836;SDS011;6485;51.472;5.268;2022-08-05T16:12:29;3.47;;;1.37;;
12836;SDS011;6485;51.472;5.268;2022-08-05T16:14:57;1.37;;;1.27;;
12836;SDS011;6485;51.472;5.268;2022-08-05T16:17:26;3.80;;;1.40;;
12836;SDS011;6485;51.472;5.268;2022-08-05T16:19:54;1.13;;;1.13;;
12836;SDS011;6485;51.472;5.268;2022-08-05T16:22:37;8.23;;;1.60;;
12836;SDS011;6485;51.472;5.268;2022-08-05T16:25:07;1.87;;;1.37;;
12836;SDS011;6485;51.472;5.268;2022-08-05T16:27:37;2.43;;;1.33;;
12836;SDS011;6485;51.472;5.268;2022-08-05T16:30:26;3.43;;;1.40;;
12836;SDS011;6485;51.472;5.268;2022-08-05T16:32:57;1.60;;;1.50;;
12836;SDS011;6485;51.472;5.268;2022-08-05T16:35:26;1.60;;;1.50;;
12836;SDS011;6485;51.472;5.268;2022-08-05T16:37:59;2.97;;;1.47;;
12836;SDS011;6485;51.472;5.268;2022-08-05T16:40:48;2.43;;;1.23;;
12836;SDS011;6485;51.472;5.268;2022-08-05T16:43:27;1.40;;;1.30;;
12836;SDS011;6485;51.472;5.268;2022-08-05T16:45:57;5.60;;;1.47;;
12836;SDS011;6485;51.472;5.268;2022-08-05T16:48:33;2.17;;;1.50;;
12836;SDS011;6485;51.472;5.268;2022-08-05T16:51:03;2.47;;;1.50;;
12836;SDS011;6485;51.472;5.268;2022-08-05T16:53:35;4.00;;;1.60;;
12836;SDS011;6485;51.472;5.268;2022-08-05T16:56:25;2.03;;;1.30;;
12836;SDS011;6485;51.472;5.268;2022-08-05T16:58:56;1.40;;;1.30;;
12836;SDS011;6485;51.472;5.268;2022-08-05T17:01:33;1.73;;;1.43;;
12836;SDS011;6485;51.472;5.268;2022-08-05T17:04:21;1.70;;;1.50;;